• Join FlightAware (Why Join?)
  • Login
  • US Flag 
04:44AM EDT


 

Airport Tracker/Info


-or-


 

Live Flight TrackerFlight Track Log ✈ UAL33 ✈ 30-Dec-2013 ✈ RJAA / NRT - KLAX

Flight Track Log - Related Links

Times and Time Zones

All times are in EST time to prevent confusion due to time zone crossing. See the UAL33 flight status page for this flight to view local times or setup timezone preferences in your user account.

Time Position Orientation Groundspeed Altitude Reporting Facility
EST Latitude Longitude Course Direction KTS MPH feet Rate Location/Type
04:54AM 36.2794 141.3428 90° East  Level Estimated
04:55AM 36.3645 141.5034 90° East  Level Estimated
04:56AM 36.4493 141.6644 83° East  Level Estimated
04:57AM 36.5339 141.8257 90° East  Level Estimated
04:58AM 36.4635 141.9973 117° Southeast  Level FlightAware Approximate
04:59AM 36.3929 142.1685 117° Southeast  Level FlightAware Approximate
05:00AM 36.4770 142.3302 87° East  Level Estimated
05:01AM 36.4092 142.5033 116° Southeast  Level FlightAware Approximate
05:02AM 36.4929 142.6652 77° East  Level Estimated
05:03AM 36.4323 142.8424 113° Southeast  Level FlightAware Approximate
05:04AM 36.5156 143.0048 78° East  Level Estimated
05:05AM 36.4893 143.1946 100° East  Level FlightAware Approximate
05:06AM 36.4627 143.3843 100° East  Level FlightAware Approximate
05:07AM 36.4359 143.5739 100° East  Level FlightAware Approximate
05:08AM 36.4087 143.7634 100° East  Level FlightAware Approximate
05:09AM 36.3812 143.9527 100° East  Level FlightAware Approximate
05:10AM 36.3534 144.1419 100° East  Level FlightAware Approximate
05:11AM 36.4353 144.3052 73° East  Level Estimated
05:12AM 36.5170 144.4688 68° East  Level Estimated
05:13AM 36.5059 144.6610 94° East  Level FlightAware Approximate
05:14AM 36.4945 144.8531 94° East  Level FlightAware Approximate
05:15AM 36.5755 145.0173 74° East  Level Estimated
05:16AM 36.5953 145.2086 83° East  Level FlightAware Approximate
05:17AM 36.6147 145.4000 83° East  Level FlightAware Approximate
05:18AM 36.6339 145.5914 83° East  Level FlightAware Approximate
05:19AM 36.6527 145.7830 83° East  Level FlightAware Approximate
05:20AM 36.6713 145.9761 83° East  Level FlightAware Approximate
05:21AM 36.6897 146.1694 83° East  Level FlightAware Approximate
05:22AM 36.7077 146.3627 83° East  Level FlightAware Approximate
05:23AM 36.7254 146.5561 83° East  Level FlightAware Approximate
05:24AM 36.7429 146.7496 84° East  Level FlightAware Approximate
05:25AM 36.7600 146.9432 84° East  Level FlightAware Approximate
05:26AM 36.7767 147.1369 84° East  Level FlightAware Approximate
05:27AM 36.8557 147.3050 84° East  Level Estimated
05:28AM 36.8681 147.4994 85° East  Level FlightAware Approximate
05:29AM 36.8803 147.6939 85° East  Level FlightAware Approximate
05:30AM 36.8921 147.8885 86° East  Level FlightAware Approximate
05:31AM 36.9036 148.0831 86° East  Level FlightAware Approximate
05:32AM 36.9148 148.2777 86° East  Level FlightAware Approximate
05:33AM 36.9257 148.4724 86° East  Level FlightAware Approximate
05:34AM 36.9363 148.6672 86° East  Level FlightAware Approximate
05:35AM 37.0134 148.8370 80° East  Level Estimated
05:36AM 37.0396 149.0297 80° East  Level FlightAware Approximate
05:37AM 37.0656 149.2225 80° East  Level FlightAware Approximate
05:38AM 37.0912 149.4155 80° East  Level FlightAware Approximate
05:39AM 37.1165 149.6085 81° East  Level FlightAware Approximate
05:40AM 37.1415 149.8017 81° East  Level FlightAware Approximate
05:41AM 37.1662 149.9951 81° East  Level FlightAware Approximate
05:42AM 37.1906 150.1885 81° East  Level FlightAware Approximate
05:43AM 37.2146 150.3821 81° East  Level FlightAware Approximate
05:44AM 37.2384 150.5758 81° East  Level FlightAware Approximate
05:45AM 37.2618 150.7696 81° East  Level FlightAware Approximate
05:46AM 37.2849 150.9635 81° East  Level FlightAware Approximate
05:47AM 37.3077 151.1576 82° East  Level FlightAware Approximate
05:48AM 37.3302 151.3518 82° East  Level FlightAware Approximate
05:49AM 37.3523 151.5461 82° East  Level FlightAware Approximate
05:50AM 37.3742 151.7404 82° East  Level FlightAware Approximate
05:51AM 37.3957 151.9350 82° East  Level FlightAware Approximate
05:52AM 37.4169 152.1296 82° East  Level FlightAware Approximate
05:53AM 37.4378 152.3243 82° East  Level FlightAware Approximate
05:54AM 37.4584 152.5192 82° East  Level FlightAware Approximate
05:55AM 37.4786 152.7141 82° East  Level FlightAware Approximate
05:56AM 37.4986 152.9092 83° East  Level FlightAware Approximate
05:57AM 37.5182 153.1043 83° East  Level FlightAware Approximate
05:58AM 37.5374 153.2996 83° East  Level FlightAware Approximate
05:59AM 37.5564 153.4949 83° East  Level FlightAware Approximate
06:00AM 37.5750 153.6904 83° East  Level FlightAware Approximate
06:01AM 37.5933 153.8860 83° East  Level FlightAware Approximate
06:02AM 37.6113 154.0816 83° East  Level FlightAware Approximate
06:03AM 37.6290 154.2774 83° East  Level FlightAware Approximate
06:04AM 37.6464 154.4732 84° East  Level FlightAware Approximate
06:05AM 37.6634 154.6691 84° East  Level FlightAware Approximate
06:06AM 37.6801 154.8651 84° East  Level FlightAware Approximate
06:07AM 37.6965 155.0612 84° East  Level FlightAware Approximate
06:08AM 37.7125 155.2574 84° East  Level FlightAware Approximate
06:09AM 37.7282 155.4537 84° East  Level FlightAware Approximate
06:10AM 37.7436 155.6501 84° East  Level FlightAware Approximate
06:11AM 37.7587 155.8465 84° East  Level FlightAware Approximate
06:12AM 37.7735 156.0430 85° East  Level FlightAware Approximate
06:13AM 37.7879 156.2396 85° East  Level FlightAware Approximate
06:14AM 37.8020 156.4363 85° East  Level FlightAware Approximate
06:15AM 37.8157 156.6330 85° East  Level FlightAware Approximate
06:16AM 37.8292 156.8298 85° East  Level FlightAware Approximate
06:17AM 37.8423 157.0267 85° East  Level FlightAware Approximate
06:18AM 37.8551 157.2237 85° East  Level FlightAware Approximate
06:19AM 37.8675 157.4207 85° East  Level FlightAware Approximate
06:20AM 37.8797 157.6178 85° East  Level FlightAware Approximate
06:21AM 37.8915 157.8150 86° East  Level FlightAware Approximate
06:22AM 37.9029 158.0122 86° East  Level FlightAware Approximate
06:23AM 37.9141 158.2095 86° East  Level FlightAware Approximate
06:24AM 37.9249 158.4068 86° East  Level FlightAware Approximate
06:25AM 37.9354 158.6042 86° East  Level FlightAware Approximate
06:26AM 38.0004 158.7841 80° East  Level Estimated
06:27AM 38.0244 158.9798 81° East  Level FlightAware Approximate
06:28AM 38.0482 159.1756 81° East  Level FlightAware Approximate
06:29AM 38.0717 159.3716 81° East  Level FlightAware Approximate
06:30AM 38.0948 159.5677 81° East  Level FlightAware Approximate
06:31AM 38.1176 159.7639 82° East  Level FlightAware Approximate
06:32AM 38.1400 159.9602 82° East  Level FlightAware Approximate
06:33AM 38.1622 160.1566 82° East  Level FlightAware Approximate
06:34AM 38.1840 160.3531 82° East  Level FlightAware Approximate
06:35AM 38.2055 160.5498 82° East  Level FlightAware Approximate
06:36AM 38.2266 160.7466 82° East  Level FlightAware Approximate
06:37AM 38.2475 160.9435 82° East  Level FlightAware Approximate
06:38AM 38.2679 161.1405 82° East  Level FlightAware Approximate
06:39AM 38.2881 161.3376 83° East  Level FlightAware Approximate
06:40AM 38.3080 161.5348 83° East  Level FlightAware Approximate
06:41AM 38.3275 161.7322 83° East  Level FlightAware Approximate
06:42AM 38.3466 161.9296 83° East  Level FlightAware Approximate
06:43AM 38.3655 162.1272 83° East  Level FlightAware Approximate
06:44AM 38.3840 162.3248 83° East  Level FlightAware Approximate
06:45AM 38.4022 162.5225 83° East  Level FlightAware Approximate
06:46AM 38.4200 162.7204 83° East  Level FlightAware Approximate
06:47AM 38.4376 162.9183 83° East  Level FlightAware Approximate
06:48AM 38.4547 163.1163 84° East  Level FlightAware Approximate
06:49AM 38.4716 163.3145 84° East  Level FlightAware Approximate
06:50AM 38.4880 163.5119 84° East  Level FlightAware Approximate
06:51AM 38.5465 163.6960 83° East  Level Estimated
06:52AM 38.5659 163.8932 83° East  Level FlightAware Approximate
06:53AM 38.5850 164.0906 83° East  Level FlightAware Approximate
06:54AM 38.6038 164.2880 83° East  Level FlightAware Approximate
06:55AM 38.6222 164.4855 83° East  Level FlightAware Approximate
06:56AM 38.6403 164.6832 83° East  Level FlightAware Approximate
06:57AM 38.6581 164.8809 83° East  Level FlightAware Approximate
06:58AM 38.6755 165.0788 83° East  Level FlightAware Approximate
06:58AM 38.8667 167.9167 85° East 626 720 39,000  Level Oakland Oceanic (ODAPS)
07:08AM 39.0000 170.0000 72° East 620 713 39,000  Level Oakland Oceanic (ODAPS)
07:12AM 39.2333 170.9167 73° East 619 712 39,000  Level Oakland Oceanic (ODAPS)
07:26AM 39.8833 173.8667 75° East 619 712 39,000  Level Oakland Oceanic (ODAPS)
07:39AM 40.4833 176.8500 77° East 608 700 39,000  Level Oakland Oceanic (ODAPS)
07:53AM 40.9833 179.8500 82° East 605 696 39,000  Level Oakland Oceanic (ODAPS)
07:54AM 41.0000 180.0000 72° East 606 697 39,000  Level Oakland Oceanic (ODAPS)
08:07AM 41.6667 -177.2000 74° East 607 699 39,000 60 Level Oakland Oceanic (ODAPS)
08:21AM 42.2833 -174.1500 75° East 593 682 40,800 60 Climbing Oakland Oceanic (ODAPS)
08:35AM 42.8167 -171.1333 77° East 590 679 41,000  Climbing Oakland Oceanic (ODAPS)
08:40AM 43.0000 -170.0000 79° East 583 671 41,000  Level Oakland Oceanic (ODAPS)
08:49AM 43.2667 -168.1167 80° East 582 670 41,000  Level Oakland Oceanic (ODAPS)
09:03AM 43.6000 -165.1167 82° East 568 654 41,000  Level Oakland Oceanic (ODAPS)
09:17AM 43.8667 -162.1667 84° East 559 643 41,000  Level Oakland Oceanic (ODAPS)
09:27AM 44.0000 -160.0000 94° East 550 633 41,000  Level Oakland Oceanic (ODAPS)
09:31AM 43.9500 -159.2167 95° East 542 624 41,000  Level Oakland Oceanic (ODAPS)
09:44AM 43.7500 -156.3833 97° East 537 618 41,000  Level Oakland Oceanic (ODAPS)
09:58AM 43.4667 -153.5833 99° East 529 609 41,000  Level Oakland Oceanic (ODAPS)
10:12AM 43.1167 -150.8667 100° East 510 587 41,000  Level Oakland Oceanic (ODAPS)
10:17AM 43.0000 -150.0000 94° East 511 588 41,000  Level Oakland Oceanic (ODAPS)
10:26AM 42.8833 -148.2667 95° East 505 581 41,000  Level Oakland Oceanic (ODAPS)
10:40AM 42.6667 -145.6000 97° East 510 587 41,000  Level Oakland Oceanic (ODAPS)
10:54AM 42.3833 -142.9500 99° East 514 592 41,000  Level Oakland Oceanic (ODAPS)
11:07AM 42.0500 -140.3333 101° East 525 604 41,000  Level Oakland Oceanic (ODAPS)
11:09AM 42.0000 -140.0000 102° East 525 604 41,000  Level Oakland Oceanic (ODAPS)
11:21AM 41.6167 -137.6667 103° East 532 612 41,000  Level Oakland Oceanic (ODAPS)
11:35AM 41.1333 -135.0667 105° East 522 601 41,000  Level Oakland Oceanic (ODAPS)
11:49AM 40.6000 -132.5500 106° East 511 588 41,000  Level Oakland Oceanic (ODAPS)
12:03PM 40.0333 -130.1167 110° East 519 597 41,000  Level Oakland Oceanic (ODAPS)
12:04PM 40.0000 -130.0000 122° Southeast 509 586 41,000  Level Oakland Oceanic (ODAPS)
12:17PM 38.9833 -128.0000 123° Southeast 502 578 41,000 -60 Level Oakland Oceanic (ODAPS)
12:20PM 38.7331 -127.5744 111° Southeast 503 579 40,900  Descending Oakland Center
12:21PM 38.7015 -127.4417 124° Southeast 509 586 41,000 60 Climbing FlightAware Transoceanic
12:21PM 38.6561 -127.4269 124° Southeast 503 579 41,000  Level Oakland Center
12:21PM 38.6333 -127.3000 125° Southeast 507 583 41,000  Level Oakland Oceanic (ODAPS)
12:22PM 38.6234 -127.2941 124° Southeast 509 586 41,000  Level FlightAware Transoceanic
12:23PM 38.5410 -127.1420 124° Southeast 502 578 41,000  Level FlightAware Transoceanic
12:23PM 38.5092 -127.1228 125° Southeast 507 583 41,000  Level Oakland Center
12:24PM 38.4667 -127.0000 111° Southeast 502 578 41,000  Level FlightAware Transoceanic
12:24PM 38.4536 -126.9572 113° Southeast 509 586 41,000  Level Oakland Center
12:25PM 38.4158 -126.8324 111° Southeast 502 578 41,000 -120 Level FlightAware Transoceanic
12:25PM 38.3906 -126.7594 112° Southeast 505 581 40,900 -120 Descending Oakland Center
12:26PM 38.3294 -126.5953 115° Southeast 510 587 40,900  Level Oakland Center
12:27PM 38.2703 -126.4331 115° Southeast 509 586 40,900  Level Oakland Center
12:28PM 38.2097 -126.2719 116° Southeast 509 586 40,900  Level Oakland Center
12:29PM 38.1447 -126.0936 115° Southeast 510 587 41,000  Climbing Oakland Center
12:30PM 38.0825 -125.9317 116° Southeast 510 587 40,900  Descending Oakland Center
12:31PM 38.0225 -125.7689 115° Southeast 511 588 41,000  Climbing Oakland Center
12:32PM 37.9597 -125.6061 116° Southeast 514 592 41,000 -60 Level Oakland Center
12:33PM 37.8983 -125.4436 116° Southeast 514 592 40,900  Descending Oakland Center
12:34PM 37.8372 -125.2806 115° Southeast 515 593 41,000  Climbing Oakland Center
12:35PM 37.7756 -125.1197 116° Southeast 511 588 41,000 -60 Level Oakland Center
12:36PM 37.7153 -124.9592 115° Southeast 509 586 40,900  Descending Oakland Center
12:37PM 37.6531 -124.8006 116° Southeast 508 585 41,000  Climbing Oakland Center
12:38PM 37.5794 -124.6108 116° Southeast 504 580 41,000  Level Oakland Center
12:39PM 37.5181 -124.4531 116° Southeast 505 581 41,000  Level Oakland Center
12:40PM 37.4567 -124.2942 116° Southeast 506 582 41,000 -60 Level Oakland Center
12:41PM 37.3953 -124.1364 116° Southeast 506 582 40,900  Descending Oakland Center
12:42PM 37.3325 -123.9783 117° Southeast 507 583 41,000  Climbing Oakland Center
12:43PM 37.2664 -123.8169 117° Southeast 521 600 41,000  Level Oakland Center
12:44PM 37.2025 -123.6586 117° Southeast 513 590 41,000  Level Oakland Center
12:45PM 37.1411 -123.5003 116° Southeast 510 587 41,000 -60 Level Oakland Center
12:46PM 37.0642 -123.3114 117° Southeast 510 587 40,900  Descending Oakland Center
12:47PM 37.0014 -123.1533 116° Southeast 510 587 41,000  Climbing Oakland Center
12:48PM 36.9361 -122.9964 117° Southeast 510 587 41,000 -60 Level Oakland Center
12:49PM 36.8722 -122.8386 117° Southeast 512 589 40,900 -60 Descending Oakland Center
12:50PM 36.8083 -122.6836 117° Southeast 507 583 40,900  Level Oakland Center
12:51PM 36.7431 -122.5269 117° Southeast 513 590 41,000  Climbing Oakland Center
12:52PM 36.6797 -122.3711 117° Southeast 508 585 40,900  Descending Oakland Center
12:53PM 36.6139 -122.2153 118° Southeast 510 587 41,000  Climbing Oakland Center
12:54PM 36.5478 -122.0592 118° Southeast 512 589 41,000  Level Oakland Center
12:55PM 36.4686 -121.8725 118° Southeast 511 588 41,000  Level Oakland Center
12:56PM 36.4122 -121.7364 117° Southeast 509 586 41,000 -60 Level Oakland Center
12:58PM 36.3453 -121.5828 118° Southeast 509 586 40,900 -60 Descending Oakland Center
12:59PM 36.2792 -121.4258 118° Southeast 512 589 40,900  Level Oakland Center
01:00PM 36.1992 -121.2389 118° Southeast 512 589 41,000  Climbing Oakland Center
01:01PM 36.1314 -121.0853 119° Southeast 510 587 41,000 -60 Level Oakland Center
01:02PM 36.0642 -120.9289 118° Southeast 514 592 40,900  Descending Oakland Center
01:03PM 35.9978 -120.7725 118° Southeast 514 592 41,000  Climbing Oakland Center
01:04PM 35.9292 -120.6169 119° Southeast 515 593 41,000  Level Oakland Center
01:05PM 35.8611 -120.4611 118° Southeast 513 590 41,000  Level Oakland Center
01:06PM 35.7922 -120.3061 119° Southeast 513 590 41,000  Level Oakland Center
01:07PM 35.7239 -120.1508 118° Southeast 512 589 41,000 -960 Level Oakland Center
01:08PM 35.6522 -119.9975 120° Southeast 512 589 39,100 -2,580 Descending Oakland Center
01:09PM 35.5414 -119.8856 141° Southeast 508 585 35,800 -3,000 Descending Oakland Center
01:09PM 35.4475 -119.8042 145° Southeast 512 589 34,000 -2,160 Descending Los Angeles Center
01:10PM 35.3325 -119.7067 145° Southeast 505 581 32,100 -1,800 Descending Los Angeles Center
01:12PM 35.2225 -119.6122 145° Southeast 494 568 30,300 -1,740 Descending Los Angeles Center
01:13PM 35.1156 -119.5214 145° Southeast 479 551 28,500 -1,740 Descending Los Angeles Center
01:14PM 35.0122 -119.4319 145° Southeast 463 533 26,700 -1,800 Descending Los Angeles Center
01:15PM 34.9094 -119.3458 146° Southeast 455 524 24,900 -1,800 Descending Los Angeles Center
01:21PM 34.2950 -118.8587 146° Southeast 386 444 13,800 -1,740 Descending FlightAware ADS-B
01:21PM 34.2626 -118.8467 163° South 365 420 13,400 -1,140 Descending FlightAware ADS-B
01:26PM 34.0161 -118.5189 132° Southeast 284 327 8,000 -1,140 Descending FlightAware ADS-B
01:27PM 34.0113 -118.4675 96° East 277 319 7,300 -1,080 Descending FlightAware ADS-B
01:27PM 34.0155 -118.4047 85° East 246 283 6,700 -720 Descending FlightAware ADS-B
01:28PM 34.0208 -118.3531 85° East 249 287 6,200 -1,620 Descending Los Angeles Center
01:29PM 34.0281 -118.2706 84° East 213 245 3,700 -1,680 Descending Los Angeles Center
01:30PM 34.0175 -118.2069 101° East 211 243 2,800 -780 Descending Los Angeles Center
01:31PM 33.9772 -118.2289 204° Southwest 181 208 2,200 -360 Descending Los Angeles Center
01:32PM 33.9644 -118.2819 254° West 173 199 2,100 -480 Descending Los Angeles Center
01:33PM 33.9603 -118.3328 264° West 163 188 1,300 -900 Descending Los Angeles Center
01:34PM 33.9544 -118.3906 263° West 152 175 300 -600 Descending Los Angeles Center
01:36PM 33.9489 -118.4350 261° West 150 173 100 -240 Descending Los Angeles Center